sensor_id;sensor_type;location;lat;lon;timestamp;temperature;humidity
7658;DHT22;8462;53.156;8.220;2022-12-18T00:02:02;-0.30;89.00
7658;DHT22;8462;53.156;8.220;2022-12-18T00:04:29;-0.30;88.90
7658;DHT22;8462;53.156;8.220;2022-12-18T00:06:56;-0.30;88.80
7658;DHT22;8462;53.156;8.220;2022-12-18T00:09:23;-0.30;88.70
7658;DHT22;8462;53.156;8.220;2022-12-18T00:11:51;-0.40;89.20
7658;DHT22;8462;53.156;8.220;2022-12-18T00:14:18;-0.40;89.20
7658;DHT22;8462;53.156;8.220;2022-12-18T00:16:45;-0.30;89.30
7658;DHT22;8462;53.156;8.220;2022-12-18T00:19:13;-0.30;88.80
7658;DHT22;8462;53.156;8.220;2022-12-18T00:21:41;-0.40;88.30
7658;DHT22;8462;53.156;8.220;2022-12-18T00:24:09;-0.30;88.70
7658;DHT22;8462;53.156;8.220;2022-12-18T00:26:37;-0.40;88.40
7658;DHT22;8462;53.156;8.220;2022-12-18T00:29:07;-0.40;88.50
7658;DHT22;8462;53.156;8.220;2022-12-18T00:31:34;-0.40;88.30
7658;DHT22;8462;53.156;8.220;2022-12-18T00:34:02;-0.50;88.20
7658;DHT22;8462;53.156;8.220;2022-12-18T00:36:31;-0.50;88.80
7658;DHT22;8462;53.156;8.220;2022-12-18T00:39:02;-0.60;87.90
7658;DHT22;8462;53.156;8.220;2022-12-18T00:41:30;-0.70;88.20
7658;DHT22;8462;53.156;8.220;2022-12-18T00:44:17;-0.80;88.40
7658;DHT22;8462;53.156;8.220;2022-12-18T00:46:45;-0.80;89.20
7658;DHT22;8462;53.156;8.220;2022-12-18T00:49:13;-0.80;89.30
7658;DHT22;8462;53.156;8.220;2022-12-18T00:51:39;-0.70;89.10
7658;DHT22;8462;53.156;8.220;2022-12-18T00:54:07;-0.80;88.40
7658;DHT22;8462;53.156;8.220;2022-12-18T00:56:35;-0.90;87.80
7658;DHT22;8462;53.156;8.220;2022-12-18T00:59:03;-1.00;88.00
7658;DHT22;8462;53.156;8.220;2022-12-18T01:01:32;-1.00;88.10
7658;DHT22;8462;53.156;8.220;2022-12-18T01:04:00;-1.10;88.00
7658;DHT22;8462;53.156;8.220;2022-12-18T01:06:27;-1.20;88.10
7658;DHT22;8462;53.156;8.220;2022-12-18T01:08:54;-1.20;88.10
7658;DHT22;8462;53.156;8.220;2022-12-18T01:11:21;-1.30;88.00
7658;DHT22;8462;53.156;8.220;2022-12-18T01:13:48;-1.30;88.00
7658;DHT22;8462;53.156;8.220;2022-12-18T01:16:17;-1.40;88.20
7658;DHT22;8462;53.156;8.220;2022-12-18T01:18:45;-1.40;87.90
7658;DHT22;8462;53.156;8.220;2022-12-18T01:21:16;-1.50;87.80
7658;DHT22;8462;53.156;8.220;2022-12-18T01:23:44;-1.50;88.00
7658;DHT22;8462;53.156;8.220;2022-12-18T01:26:12;-1.60;87.80
7658;DHT22;8462;53.156;8.220;2022-12-18T01:28:41;-1.60;87.90
7658;DHT22;8462;53.156;8.220;2022-12-18T01:31:13;-1.70;87.40
7658;DHT22;8462;53.156;8.220;2022-12-18T01:33:40;-1.70;87.70
7658;DHT22;8462;53.156;8.220;2022-12-18T01:36:14;-1.80;87.50
7658;DHT22;8462;53.156;8.220;2022-12-18T01:38:41;-1.80;87.70
7658;DHT22;8462;53.156;8.220;2022-12-18T01:41:08;-1.90;87.60
7658;DHT22;8462;53.156;8.220;2022-12-18T01:43:50;-1.90;87.90
7658;DHT22;8462;53.156;8.220;2022-12-18T01:46:21;-1.90;87.60
7658;DHT22;8462;53.156;8.220;2022-12-18T01:48:55;-1.90;87.60
7658;DHT22;8462;53.156;8.220;2022-12-18T01:51:26;-1.90;87.60
7658;DHT22;8462;53.156;8.220;2022-12-18T01:53:54;-2.00;87.50
7658;DHT22;8462;53.156;8.220;2022-12-18T01:56:21;-2.00;87.20
7658;DHT22;8462;53.156;8.220;2022-12-18T01:58:54;-2.00;87.20
7658;DHT22;8462;53.156;8.220;2022-12-18T02:01:24;-2.10;87.20
7658;DHT22;8462;53.156;8.220;2022-12-18T02:03:52;-2.10;87.30
7658;DHT22;8462;53.156;8.220;2022-12-18T02:06:24;-2.10;87.40
7658;DHT22;8462;53.156;8.220;2022-12-18T02:09:02;-2.10;87.30
7658;DHT22;8462;53.156;8.220;2022-12-18T02:11:40;-2.10;87.20
7658;DHT22;8462;53.156;8.220;2022-12-18T02:14:17;-2.10;86.90
7658;DHT22;8462;53.156;8.220;2022-12-18T02:16:49;-2.10;87.00
7658;DHT22;8462;53.156;8.220;2022-12-18T02:19:35;-2.10;87.10
7658;DHT22;8462;53.156;8.220;2022-12-18T02:22:15;-2.10;86.90
7658;DHT22;8462;53.156;8.220;2022-12-18T02:24:57;-2.20;86.70
7658;DHT22;8462;53.156;8.220;2022-12-18T02:27:30;-2.20;86.80
7658;DHT22;8462;53.156;8.220;2022-12-18T02:29:59;-2.20;86.70
7658;DHT22;8462;53.156;8.220;2022-12-18T02:32:30;-2.20;86.50
7658;DHT22;8462;53.156;8.220;2022-12-18T02:34:59;-2.30;86.30
7658;DHT22;8462;53.156;8.220;2022-12-18T02:37:30;-2.30;86.30
7658;DHT22;8462;53.156;8.220;2022-12-18T02:40:02;-2.40;86.20
7658;DHT22;8462;53.156;8.220;2022-12-18T02:42:33;-2.50;86.10
7658;DHT22;8462;53.156;8.220;2022-12-18T02:45:01;-2.50;86.20
7658;DHT22;8462;53.156;8.220;2022-12-18T02:47:32;-2.50;86.20
7658;DHT22;8462;53.156;8.220;2022-12-18T02:50:08;-2.50;86.30
7658;DHT22;8462;53.156;8.220;2022-12-18T02:52:44;-2.60;86.30
7658;DHT22;8462;53.156;8.220;2022-12-18T02:55:24;-2.60;86.40
7658;DHT22;8462;53.156;8.220;2022-12-18T02:58:04;-2.60;86.40
7658;DHT22;8462;53.156;8.220;2022-12-18T03:00:39;-2.70;86.40
7658;DHT22;8462;53.156;8.220;2022-12-18T03:03:10;-2.70;86.30
7658;DHT22;8462;53.156;8.220;2022-12-18T03:05:43;-2.70;86.10
7658;DHT22;8462;53.156;8.220;2022-12-18T03:08:15;-2.70;86.00
7658;DHT22;8462;53.156;8.220;2022-12-18T03:10:49;-2.80;86.00
7658;DHT22;8462;53.156;8.220;2022-12-18T03:13:22;-2.80;86.90
7658;DHT22;8462;53.156;8.220;2022-12-18T03:15:59;-2.90;86.00
7658;DHT22;8462;53.156;8.220;2022-12-18T03:18:30;-2.90;86.20
7658;DHT22;8462;53.156;8.220;2022-12-18T03:21:02;-2.90;86.20
7658;DHT22;8462;53.156;8.220;2022-12-18T03:23:34;-3.00;85.90
7658;DHT22;8462;53.156;8.220;2022-12-18T03:26:06;-3.00;86.10
7658;DHT22;8462;53.156;8.220;2022-12-18T03:28:42;-3.00;86.10
7658;DHT22;8462;53.156;8.220;2022-12-18T03:31:12;-3.10;86.10
7658;DHT22;8462;53.156;8.220;2022-12-18T03:33:45;-3.10;86.00
7658;DHT22;8462;53.156;8.220;2022-12-18T03:36:14;-3.10;86.10
7658;DHT22;8462;53.156;8.220;2022-12-18T03:38:41;-3.10;86.10
7658;DHT22;8462;53.156;8.220;2022-12-18T03:41:15;-3.20;86.00
7658;DHT22;8462;53.156;8.220;2022-12-18T03:44:28;-3.20;86.20
7658;DHT22;8462;53.156;8.220;2022-12-18T03:47:03;-3.20;85.80
7658;DHT22;8462;53.156;8.220;2022-12-18T03:49:36;-3.30;85.90
7658;DHT22;8462;53.156;8.220;2022-12-18T03:52:09;-3.30;86.00
7658;DHT22;8462;53.156;8.220;2022-12-18T03:54:41;-3.30;86.10
7658;DHT22;8462;53.156;8.220;2022-12-18T03:57:15;-3.30;86.10
7658;DHT22;8462;53.156;8.220;2022-12-18T03:59:46;-3.30;86.10
7658;DHT22;8462;53.156;8.220;2022-12-18T04:02:17;-3.30;86.10
7658;DHT22;8462;53.156;8.220;2022-12-18T04:04:46;-3.40;86.10
7658;DHT22;8462;53.156;8.220;2022-12-18T04:07:16;-3.40;86.20
7658;DHT22;8462;53.156;8.220;2022-12-18T04:09:45;-3.40;86.30
7658;DHT22;8462;53.156;8.220;2022-12-18T04:12:14;-3.40;86.30
7658;DHT22;8462;53.156;8.220;2022-12-18T04:14:41;-3.40;86.30
7658;DHT22;8462;53.156;8.220;2022-12-18T04:17:10;-3.50;86.30
7658;DHT22;8462;53.156;8.220;2022-12-18T04:19:37;-3.40;86.60
7658;DHT22;8462;53.156;8.220;2022-12-18T04:22:04;-3.40;86.70
7658;DHT22;8462;53.156;8.220;2022-12-18T04:24:37;-3.40;86.60
7658;DHT22;8462;53.156;8.220;2022-12-18T04:27:11;-3.40;86.50
7658;DHT22;8462;53.156;8.220;2022-12-18T04:29:42;-3.40;86.60
7658;DHT22;8462;53.156;8.220;2022-12-18T04:32:11;-3.40;87.50
7658;DHT22;8462;53.156;8.220;2022-12-18T04:34:39;-3.40;86.30
7658;DHT22;8462;53.156;8.220;2022-12-18T04:37:06;-3.40;86.50
7658;DHT22;8462;53.156;8.220;2022-12-18T04:39:33;-3.40;86.30
7658;DHT22;8462;53.156;8.220;2022-12-18T04:42:06;-3.50;86.30
7658;DHT22;8462;53.156;8.220;2022-12-18T04:44:33;-3.40;86.40
7658;DHT22;8462;53.156;8.220;2022-12-18T04:47:00;-3.50;86.40
7658;DHT22;8462;53.156;8.220;2022-12-18T04:49:28;-3.50;86.40
7658;DHT22;8462;53.156;8.220;2022-12-18T04:51:55;-3.50;86.70
7658;DHT22;8462;53.156;8.220;2022-12-18T04:54:22;-3.50;86.80
7658;DHT22;8462;53.156;8.220;2022-12-18T04:56:49;-3.40;86.80
7658;DHT22;8462;53.156;8.220;2022-12-18T04:59:16;-3.40;86.60
7658;DHT22;8462;53.156;8.220;2022-12-18T05:01:43;-3.40;86.70
7658;DHT22;8462;53.156;8.220;2022-12-18T05:04:11;-3.40;86.70
7658;DHT22;8462;53.156;8.220;2022-12-18T05:06:39;-3.40;86.50
7658;DHT22;8462;53.156;8.220;2022-12-18T05:09:06;-3.30;86.50
7658;DHT22;8462;53.156;8.220;2022-12-18T05:11:34;-3.30;86.40
7658;DHT22;8462;53.156;8.220;2022-12-18T05:14:05;-3.30;86.80
7658;DHT22;8462;53.156;8.220;2022-12-18T05:16:31;-3.30;86.40
7658;DHT22;8462;53.156;8.220;2022-12-18T05:18:58;-3.30;86.40
7658;DHT22;8462;53.156;8.220;2022-12-18T05:21:25;-3.30;85.90
7658;DHT22;8462;53.156;8.220;2022-12-18T05:23:53;-3.20;85.80
7658;DHT22;8462;53.156;8.220;2022-12-18T05:26:20;-3.20;85.80
7658;DHT22;8462;53.156;8.220;2022-12-18T05:28:47;-3.20;85.80
7658;DHT22;8462;53.156;8.220;2022-12-18T05:31:14;-3.20;85.70
7658;DHT22;8462;53.156;8.220;2022-12-18T05:33:41;-3.20;85.70
7658;DHT22;8462;53.156;8.220;2022-12-18T05:36:09;-3.30;85.70
7658;DHT22;8462;53.156;8.220;2022-12-18T05:38:38;-3.20;85.80
7658;DHT22;8462;53.156;8.220;2022-12-18T05:41:07;-3.30;85.60
7658;DHT22;8462;53.156;8.220;2022-12-18T05:43:35;-3.30;85.20
7658;DHT22;8462;53.156;8.220;2022-12-18T05:46:04;-3.30;85.20
7658;DHT22;8462;53.156;8.220;2022-12-18T05:48:32;-3.40;85.20
7658;DHT22;8462;53.156;8.220;2022-12-18T05:51:04;-3.40;85.30
7658;DHT22;8462;53.156;8.220;2022-12-18T05:53:32;-3.40;85.30
7658;DHT22;8462;53.156;8.220;2022-12-18T05:56:00;-3.40;85.30
7658;DHT22;8462;53.156;8.220;2022-12-18T05:58:30;-3.40;85.60
7658;DHT22;8462;53.156;8.220;2022-12-18T06:00:58;-3.40;85.70
7658;DHT22;8462;53.156;8.220;2022-12-18T06:03:31;-3.50;85.70
7658;DHT22;8462;53.156;8.220;2022-12-18T06:05:58;-3.40;85.70
7658;DHT22;8462;53.156;8.220;2022-12-18T06:08:25;-3.40;85.70
7658;DHT22;8462;53.156;8.220;2022-12-18T06:10:52;-3.40;85.70
7658;DHT22;8462;53.156;8.220;2022-12-18T06:13:19;-3.40;86.60
7658;DHT22;8462;53.156;8.220;2022-12-18T06:15:48;-3.40;85.70
7658;DHT22;8462;53.156;8.220;2022-12-18T06:18:14;-3.40;85.70
7658;DHT22;8462;53.156;8.220;2022-12-18T06:20:41;-3.40;85.60
7658;DHT22;8462;53.156;8.220;2022-12-18T06:23:08;-3.40;85.60
7658;DHT22;8462;53.156;8.220;2022-12-18T06:25:38;-3.40;85.50
7658;DHT22;8462;53.156;8.220;2022-12-18T06:28:05;-3.40;85.50
7658;DHT22;8462;53.156;8.220;2022-12-18T06:30:32;-3.40;85.50
7658;DHT22;8462;53.156;8.220;2022-12-18T06:33:00;-3.40;85.50
7658;DHT22;8462;53.156;8.220;2022-12-18T06:35:27;-3.50;85.60
7658;DHT22;8462;53.156;8.220;2022-12-18T06:37:54;-3.50;85.70
7658;DHT22;8462;53.156;8.220;2022-12-18T06:40:20;-3.50;85.60
7658;DHT22;8462;53.156;8.220;2022-12-18T06:42:47;-3.50;85.60
7658;DHT22;8462;53.156;8.220;2022-12-18T06:45:14;-3.40;85.70
7658;DHT22;8462;53.156;8.220;2022-12-18T06:47:41;-3.40;85.80
7658;DHT22;8462;53.156;8.220;2022-12-18T06:50:11;-3.40;85.70
7658;DHT22;8462;53.156;8.220;2022-12-18T06:52:38;-3.40;85.70
7658;DHT22;8462;53.156;8.220;2022-12-18T06:55:09;-3.40;86.00
7658;DHT22;8462;53.156;8.220;2022-12-18T06:57:37;-3.40;85.70
7658;DHT22;8462;53.156;8.220;2022-12-18T07:00:06;-3.40;85.70
7658;DHT22;8462;53.156;8.220;2022-12-18T07:02:33;-3.30;85.70
7658;DHT22;8462;53.156;8.220;2022-12-18T07:05:00;-3.30;85.50
7658;DHT22;8462;53.156;8.220;2022-12-18T07:07:28;-3.30;85.40
7658;DHT22;8462;53.156;8.220;2022-12-18T07:09:55;-3.30;85.30
7658;DHT22;8462;53.156;8.220;2022-12-18T07:12:23;-3.30;85.30
7658;DHT22;8462;53.156;8.220;2022-12-18T07:14:50;-3.30;85.00
7658;DHT22;8462;53.156;8.220;2022-12-18T07:17:16;-3.30;85.10
7658;DHT22;8462;53.156;8.220;2022-12-18T07:19:43;-3.30;85.10
7658;DHT22;8462;53.156;8.220;2022-12-18T07:22:10;-3.40;84.90
7658;DHT22;8462;53.156;8.220;2022-12-18T07:24:38;-3.40;84.80
7658;DHT22;8462;53.156;8.220;2022-12-18T07:27:05;-3.40;84.60
7658;DHT22;8462;53.156;8.220;2022-12-18T07:29:32;-3.40;85.70
7658;DHT22;8462;53.156;8.220;2022-12-18T07:31:59;-3.50;84.90
7658;DHT22;8462;53.156;8.220;2022-12-18T07:34:26;-3.50;84.90
7658;DHT22;8462;53.156;8.220;2022-12-18T07:36:53;-3.50;85.00
7658;DHT22;8462;53.156;8.220;2022-12-18T07:39:19;-3.50;85.10
7658;DHT22;8462;53.156;8.220;2022-12-18T07:41:49;-3.50;85.50
7658;DHT22;8462;53.156;8.220;2022-12-18T07:44:39;-3.50;85.50
7658;DHT22;8462;53.156;8.220;2022-12-18T07:47:06;-3.50;85.50
7658;DHT22;8462;53.156;8.220;2022-12-18T07:49:33;-3.50;85.60
7658;DHT22;8462;53.156;8.220;2022-12-18T07:52:00;-3.50;85.70
7658;DHT22;8462;53.156;8.220;2022-12-18T07:54:27;-3.40;85.60
7658;DHT22;8462;53.156;8.220;2022-12-18T07:56:55;-3.40;85.70
7658;DHT22;8462;53.156;8.220;2022-12-18T07:59:24;-3.40;85.60
7658;DHT22;8462;53.156;8.220;2022-12-18T08:01:51;-3.30;85.40
7658;DHT22;8462;53.156;8.220;2022-12-18T08:04:18;-3.30;85.50
7658;DHT22;8462;53.156;8.220;2022-12-18T08:06:46;-3.20;85.30
7658;DHT22;8462;53.156;8.220;2022-12-18T08:09:13;-3.10;85.30
7658;DHT22;8462;53.156;8.220;2022-12-18T08:11:40;-3.00;85.30
7658;DHT22;8462;53.156;8.220;2022-12-18T08:14:08;-3.00;85.10
7658;DHT22;8462;53.156;8.220;2022-12-18T08:16:35;-3.00;85.00
7658;DHT22;8462;53.156;8.220;2022-12-18T08:19:02;-2.90;84.70
7658;DHT22;8462;53.156;8.220;2022-12-18T08:21:30;-2.80;84.60
7658;DHT22;8462;53.156;8.220;2022-12-18T08:23:59;-2.80;84.60
7658;DHT22;8462;53.156;8.220;2022-12-18T08:26:28;-2.80;84.50
7658;DHT22;8462;53.156;8.220;2022-12-18T08:28:56;-2.70;84.80
7658;DHT22;8462;53.156;8.220;2022-12-18T08:31:26;-2.60;84.70
7658;DHT22;8462;53.156;8.220;2022-12-18T08:33:54;-2.50;84.70
7658;DHT22;8462;53.156;8.220;2022-12-18T08:36:21;-2.50;84.50
7658;DHT22;8462;53.156;8.220;2022-12-18T08:38:48;-2.40;84.40
7658;DHT22;8462;53.156;8.220;2022-12-18T08:41:17;-2.30;84.40
7658;DHT22;8462;53.156;8.220;2022-12-18T08:43:44;-2.20;84.50
7658;DHT22;8462;53.156;8.220;2022-12-18T08:46:34;-2.10;84.40
7658;DHT22;8462;53.156;8.220;2022-12-18T08:49:01;-2.00;84.50
7658;DHT22;8462;53.156;8.220;2022-12-18T08:51:28;-1.80;84.20
7658;DHT22;8462;53.156;8.220;2022-12-18T08:53:55;-1.70;84.00
7658;DHT22;8462;53.156;8.220;2022-12-18T08:56:22;-1.70;83.50
7658;DHT22;8462;53.156;8.220;2022-12-18T08:58:51;-1.60;83.60
7658;DHT22;8462;53.156;8.220;2022-12-18T09:01:19;-1.50;83.10
7658;DHT22;8462;53.156;8.220;2022-12-18T09:03:49;-1.40;82.80
7658;DHT22;8462;53.156;8.220;2022-12-18T09:06:17;-1.30;82.60
7658;DHT22;8462;53.156;8.220;2022-12-18T09:08:45;-1.20;83.20
7658;DHT22;8462;53.156;8.220;2022-12-18T09:11:14;-1.20;83.00
7658;DHT22;8462;53.156;8.220;2022-12-18T09:13:41;-1.00;83.40
7658;DHT22;8462;53.156;8.220;2022-12-18T09:16:08;-0.80;82.50
7658;DHT22;8462;53.156;8.220;2022-12-18T09:18:35;-0.70;82.20
7658;DHT22;8462;53.156;8.220;2022-12-18T09:21:09;-0.50;82.30
7658;DHT22;8462;53.156;8.220;2022-12-18T09:23:36;-0.40;81.00
7658;DHT22;8462;53.156;8.220;2022-12-18T09:26:03;-0.40;80.40
7658;DHT22;8462;53.156;8.220;2022-12-18T09:28:30;-0.40;80.90
7658;DHT22;8462;53.156;8.220;2022-12-18T09:30:57;-0.30;80.70
7658;DHT22;8462;53.156;8.220;2022-12-18T09:33:24;-0.30;80.30
7658;DHT22;8462;53.156;8.220;2022-12-18T09:35:51;-0.30;80.40
7658;DHT22;8462;53.156;8.220;2022-12-18T09:38:20;-0.30;80.70
7658;DHT22;8462;53.156;8.220;2022-12-18T09:40:51;-0.30;80.40
7658;DHT22;8462;53.156;8.220;2022-12-18T09:43:21;-0.30;80.50
7658;DHT22;8462;53.156;8.220;2022-12-18T09:45:51;-0.30;80.80
7658;DHT22;8462;53.156;8.220;2022-12-18T09:48:23;-0.30;80.40
7658;DHT22;8462;53.156;8.220;2022-12-18T09:50:51;-0.30;80.70
7658;DHT22;8462;53.156;8.220;2022-12-18T09:53:25;-0.30;80.90
7658;DHT22;8462;53.156;8.220;2022-12-18T09:55:53;-0.30;81.20
7658;DHT22;8462;53.156;8.220;2022-12-18T09:58:26;-0.30;81.40
7658;DHT22;8462;53.156;8.220;2022-12-18T10:00:55;-0.20;81.50
7658;DHT22;8462;53.156;8.220;2022-12-18T10:03:22;-0.10;81.70
7658;DHT22;8462;53.156;8.220;2022-12-18T10:05:57;0.00;81.50
7658;DHT22;8462;53.156;8.220;2022-12-18T10:08:34;0.10;81.30
7658;DHT22;8462;53.156;8.220;2022-12-18T10:11:17;0.20;81.00
7658;DHT22;8462;53.156;8.220;2022-12-18T10:13:50;0.20;80.80
7658;DHT22;8462;53.156;8.220;2022-12-18T10:16:21;0.20;80.70
7658;DHT22;8462;53.156;8.220;2022-12-18T10:19:14;0.20;80.80
7658;DHT22;8462;53.156;8.220;2022-12-18T10:21:51;0.30;80.70
7658;DHT22;8462;53.156;8.220;2022-12-18T10:24:28;0.30;80.80
7658;DHT22;8462;53.156;8.220;2022-12-18T10:27:04;0.30;80.70
7658;DHT22;8462;53.156;8.220;2022-12-18T10:29:35;0.30;81.00
7658;DHT22;8462;53.156;8.220;2022-12-18T10:32:03;0.40;81.30
7658;DHT22;8462;53.156;8.220;2022-12-18T10:34:30;0.40;81.30
7658;DHT22;8462;53.156;8.220;2022-12-18T10:36:57;0.40;81.40
7658;DHT22;8462;53.156;8.220;2022-12-18T10:39:27;0.50;81.60
7658;DHT22;8462;53.156;8.220;2022-12-18T10:42:10;0.50;81.50
7658;DHT22;8462;53.156;8.220;2022-12-18T10:44:37;0.60;81.50
7658;DHT22;8462;53.156;8.220;2022-12-18T10:47:05;0.60;81.20
7658;DHT22;8462;53.156;8.220;2022-12-18T10:49:33;0.60;81.50
7658;DHT22;8462;53.156;8.220;2022-12-18T10:52:07;0.60;81.80
7658;DHT22;8462;53.156;8.220;2022-12-18T10:54:39;0.70;81.90
7658;DHT22;8462;53.156;8.220;2022-12-18T10:57:17;0.80;81.60
7658;DHT22;8462;53.156;8.220;2022-12-18T10:59:53;0.90;81.80
7658;DHT22;8462;53.156;8.220;2022-12-18T11:02:28;0.90;81.20
7658;DHT22;8462;53.156;8.220;2022-12-18T11:05:01;1.00;81.30
7658;DHT22;8462;53.156;8.220;2022-12-18T11:07:47;1.10;81.40
7658;DHT22;8462;53.156;8.220;2022-12-18T11:10:18;1.20;81.40
7658;DHT22;8462;53.156;8.220;2022-12-18T11:12:46;1.30;81.20
7658;DHT22;8462;53.156;8.220;2022-12-18T11:15:19;1.30;81.10
7658;DHT22;8462;53.156;8.220;2022-12-18T11:17:48;1.40;81.50
7658;DHT22;8462;53.156;8.220;2022-12-18T11:20:31;1.50;81.00
7658;DHT22;8462;53.156;8.220;2022-12-18T11:23:00;1.60;81.20
7658;DHT22;8462;53.156;8.220;2022-12-18T11:25:29;1.70;80.50
7658;DHT22;8462;53.156;8.220;2022-12-18T11:27:59;1.80;80.20
7658;DHT22;8462;53.156;8.220;2022-12-18T11:30:28;1.80;80.60
7658;DHT22;8462;53.156;8.220;2022-12-18T11:32:59;1.80;80.60
7658;DHT22;8462;53.156;8.220;2022-12-18T11:35:36;1.90;80.70
7658;DHT22;8462;53.156;8.220;2022-12-18T11:38:10;2.00;80.70
7658;DHT22;8462;53.156;8.220;2022-12-18T11:40:42;2.00;80.40
7658;DHT22;8462;53.156;8.220;2022-12-18T11:43:15;2.00;80.30
7658;DHT22;8462;53.156;8.220;2022-12-18T11:45:50;1.90;80.20
7658;DHT22;8462;53.156;8.220;2022-12-18T11:48:21;1.90;80.30
7658;DHT22;8462;53.156;8.220;2022-12-18T11:50:50;1.90;80.50
7658;DHT22;8462;53.156;8.220;2022-12-18T11:53:18;2.00;80.30
7658;DHT22;8462;53.156;8.220;2022-12-18T11:55:54;1.90;80.80
7658;DHT22;8462;53.156;8.220;2022-12-18T11:58:34;1.90;80.30
7658;DHT22;8462;53.156;8.220;2022-12-18T12:01:12;1.90;80.50
7658;DHT22;8462;53.156;8.220;2022-12-18T12:04:13;1.90;80.80
7658;DHT22;8462;53.156;8.220;2022-12-18T12:06:50;1.90;81.60
7658;DHT22;8462;53.156;8.220;2022-12-18T12:09:26;1.80;80.80
7658;DHT22;8462;53.156;8.220;2022-12-18T12:12:07;1.70;81.00
7658;DHT22;8462;53.156;8.220;2022-12-18T12:14:47;1.70;81.40
7658;DHT22;8462;53.156;8.220;2022-12-18T12:17:23;1.60;81.60
7658;DHT22;8462;53.156;8.220;2022-12-18T12:19:57;1.60;81.70
7658;DHT22;8462;53.156;8.220;2022-12-18T12:22:34;1.60;81.60
7658;DHT22;8462;53.156;8.220;2022-12-18T12:25:20;1.50;81.70
7658;DHT22;8462;53.156;8.220;2022-12-18T12:27:58;1.50;81.90
7658;DHT22;8462;53.156;8.220;2022-12-18T12:30:32;1.40;82.20
7658;DHT22;8462;53.156;8.220;2022-12-18T12:33:14;1.40;82.10
7658;DHT22;8462;53.156;8.220;2022-12-18T12:35:48;1.30;82.60
7658;DHT22;8462;53.156;8.220;2022-12-18T12:38:22;1.30;82.70
7658;DHT22;8462;53.156;8.220;2022-12-18T12:40:54;1.30;82.70
7658;DHT22;8462;53.156;8.220;2022-12-18T12:43:31;1.40;82.90
7658;DHT22;8462;53.156;8.220;2022-12-18T12:46:00;1.40;82.80
7658;DHT22;8462;53.156;8.220;2022-12-18T12:48:42;1.50;82.40
7658;DHT22;8462;53.156;8.220;2022-12-18T12:51:16;1.50;82.70
7658;DHT22;8462;53.156;8.220;2022-12-18T12:53:43;1.50;82.40
7658;DHT22;8462;53.156;8.220;2022-12-18T12:56:14;1.40;82.40
7658;DHT22;8462;53.156;8.220;2022-12-18T12:58:52;1.60;82.40
7658;DHT22;8462;53.156;8.220;2022-12-18T13:01:28;1.60;82.30
7658;DHT22;8462;53.156;8.220;2022-12-18T13:04:08;1.60;82.00
7658;DHT22;8462;53.156;8.220;2022-12-18T13:06:43;1.70;81.50
7658;DHT22;8462;53.156;8.220;2022-12-18T13:09:11;1.80;81.60
7658;DHT22;8462;53.156;8.220;2022-12-18T13:11:40;1.80;81.20
7658;DHT22;8462;53.156;8.220;2022-12-18T13:14:28;1.80;81.00
7658;DHT22;8462;53.156;8.220;2022-12-18T13:17:26;1.70;81.30
7658;DHT22;8462;53.156;8.220;2022-12-18T13:20:11;1.70;81.40
7658;DHT22;8462;53.156;8.220;2022-12-18T13:22:41;1.60;81.30
7658;DHT22;8462;53.156;8.220;2022-12-18T13:25:37;1.70;81.40
7658;DHT22;8462;53.156;8.220;2022-12-18T13:28:10;1.60;81.50
7658;DHT22;8462;53.156;8.220;2022-12-18T13:30:44;1.60;82.60
7658;DHT22;8462;53.156;8.220;2022-12-18T13:33:35;1.60;81.60
7658;DHT22;8462;53.156;8.220;2022-12-18T13:36:12;1.60;81.80
7658;DHT22;8462;53.156;8.220;2022-12-18T13:38:40;1.60;82.00
7658;DHT22;8462;53.156;8.220;2022-12-18T13:41:23;1.50;82.00
7658;DHT22;8462;53.156;8.220;2022-12-18T13:43:51;1.40;82.30
7658;DHT22;8462;53.156;8.220;2022-12-18T13:46:23;1.40;82.40
7658;DHT22;8462;53.156;8.220;2022-12-18T13:48:54;1.30;82.50
7658;DHT22;8462;53.156;8.220;2022-12-18T13:51:22;1.30;82.90
7658;DHT22;8462;53.156;8.220;2022-12-18T13:53:51;1.20;82.70
7658;DHT22;8462;53.156;8.220;2022-12-18T13:56:23;1.20;82.70
7658;DHT22;8462;53.156;8.220;2022-12-18T13:59:11;1.20;82.70
7658;DHT22;8462;53.156;8.220;2022-12-18T14:01:44;1.20;82.70
7658;DHT22;8462;53.156;8.220;2022-12-18T14:04:18;1.10;82.70
7658;DHT22;8462;53.156;8.220;2022-12-18T14:06:46;1.10;82.50
7658;DHT22;8462;53.156;8.220;2022-12-18T14:09:15;1.10;82.60
7658;DHT22;8462;53.156;8.220;2022-12-18T14:11:46;1.10;82.80
7658;DHT22;8462;53.156;8.220;2022-12-18T14:14:15;1.10;82.50
7658;DHT22;8462;53.156;8.220;2022-12-18T14:16:44;1.10;82.50
7658;DHT22;8462;53.156;8.220;2022-12-18T14:19:14;1.00;82.40
7658;DHT22;8462;53.156;8.220;2022-12-18T14:21:46;1.00;83.40
7658;DHT22;8462;53.156;8.220;2022-12-18T14:24:15;1.00;82.60
7658;DHT22;8462;53.156;8.220;2022-12-18T14:26:43;1.00;82.60
7658;DHT22;8462;53.156;8.220;2022-12-18T14:29:22;0.90;83.10
7658;DHT22;8462;53.156;8.220;2022-12-18T14:32:10;0.90;83.00
7658;DHT22;8462;53.156;8.220;2022-12-18T14:34:38;0.90;82.70
7658;DHT22;8462;53.156;8.220;2022-12-18T14:37:07;0.80;82.80
7658;DHT22;8462;53.156;8.220;2022-12-18T14:39:35;0.70;82.80
7658;DHT22;8462;53.156;8.220;2022-12-18T14:42:02;0.70;83.10
7658;DHT22;8462;53.156;8.220;2022-12-18T14:44:29;0.70;83.20
7658;DHT22;8462;53.156;8.220;2022-12-18T14:46:56;0.70;83.60
7658;DHT22;8462;53.156;8.220;2022-12-18T14:49:28;0.70;83.20
7658;DHT22;8462;53.156;8.220;2022-12-18T14:51:57;0.60;83.10
7658;DHT22;8462;53.156;8.220;2022-12-18T14:54:29;0.60;83.10
7658;DHT22;8462;53.156;8.220;2022-12-18T14:57:00;0.60;83.30
7658;DHT22;8462;53.156;8.220;2022-12-18T14:59:28;0.60;83.30
7658;DHT22;8462;53.156;8.220;2022-12-18T15:02:04;0.50;83.20
7658;DHT22;8462;53.156;8.220;2022-12-18T15:04:40;0.50;83.40
7658;DHT22;8462;53.156;8.220;2022-12-18T15:07:14;0.50;83.40
7658;DHT22;8462;53.156;8.220;2022-12-18T15:09:43;0.60;83.40
7658;DHT22;8462;53.156;8.220;2022-12-18T15:12:26;0.60;83.40
7658;DHT22;8462;53.156;8.220;2022-12-18T15:14:55;0.60;83.40
7658;DHT22;8462;53.156;8.220;2022-12-18T15:17:23;0.60;83.20
7658;DHT22;8462;53.156;8.220;2022-12-18T15:19:53;0.60;83.00
7658;DHT22;8462;53.156;8.220;2022-12-18T15:22:24;0.70;82.80
7658;DHT22;8462;53.156;8.220;2022-12-18T15:24:52;0.70;82.70
7658;DHT22;8462;53.156;8.220;2022-12-18T15:27:22;0.70;82.80
7658;DHT22;8462;53.156;8.220;2022-12-18T15:30:18;0.70;82.60
7658;DHT22;8462;53.156;8.220;2022-12-18T15:32:46;0.60;82.60
7658;DHT22;8462;53.156;8.220;2022-12-18T15:35:18;0.60;82.60
7658;DHT22;8462;53.156;8.220;2022-12-18T15:37:46;0.70;82.60
7658;DHT22;8462;53.156;8.220;2022-12-18T15:40:14;0.60;82.50
7658;DHT22;8462;53.156;8.220;2022-12-18T15:42:42;0.60;82.50
7658;DHT22;8462;53.156;8.220;2022-12-18T15:45:30;0.70;82.60
7658;DHT22;8462;53.156;8.220;2022-12-18T15:47:57;0.70;82.50
7658;DHT22;8462;53.156;8.220;2022-12-18T15:50:25;0.70;82.40
7658;DHT22;8462;53.156;8.220;2022-12-18T15:52:53;0.70;82.30
7658;DHT22;8462;53.156;8.220;2022-12-18T15:55:23;0.80;82.10
7658;DHT22;8462;53.156;8.220;2022-12-18T15:58:08;0.80;81.90
7658;DHT22;8462;53.156;8.220;2022-12-18T16:00:37;0.90;81.80
7658;DHT22;8462;53.156;8.220;2022-12-18T16:03:04;0.90;81.70
7658;DHT22;8462;53.156;8.220;2022-12-18T16:05:33;0.90;81.60
7658;DHT22;8462;53.156;8.220;2022-12-18T16:08:00;1.00;81.30
7658;DHT22;8462;53.156;8.220;2022-12-18T16:10:27;1.00;81.10
7658;DHT22;8462;53.156;8.220;2022-12-18T16:12:54;1.00;80.90
7658;DHT22;8462;53.156;8.220;2022-12-18T16:15:21;1.00;80.70
7658;DHT22;8462;53.156;8.220;2022-12-18T16:17:50;1.00;80.70
7658;DHT22;8462;53.156;8.220;2022-12-18T16:20:20;1.10;80.50
7658;DHT22;8462;53.156;8.220;2022-12-18T16:22:49;1.10;80.40
7658;DHT22;8462;53.156;8.220;2022-12-18T16:25:19;1.00;80.40
7658;DHT22;8462;53.156;8.220;2022-12-18T16:27:49;1.00;80.50
7658;DHT22;8462;53.156;8.220;2022-12-18T16:30:18;1.00;80.40
7658;DHT22;8462;53.156;8.220;2022-12-18T16:32:46;1.10;80.30